Time;durP1;ratioP1;P1;durP2;ratioP2;P2;SDS_P1;SDS_P2;PMS_P1;PMS_P2;Temp;Humidity;BMP_temperature;BMP_pressure;BME280_temperature;BME280_humidity;BME280_pressure;Samples;Min_cycle;Max_cycle;Signal;HPM_P1;HPM_P2
2022/04/14 00:01:01;;;;;;;0.40;0.30;;;;;;;11.02;79.14;101152.56;5132586;27;20813;-72
2022/04/14 00:03:27;;;;;;;0.40;0.30;;;;;;;11.01;79.62;101156.41;5156139;27;20973;-72
2022/04/14 00:05:54;;;;;;;0.60;0.57;;;;;;;11.00;80.40;101152.06;5133970;27;20475;-72
2022/04/14 00:08:21;;;;;;;0.40;0.30;;;;;;;10.95;80.72;101154.84;5114635;28;20544;-72
2022/04/14 00:10:47;;;;;;;0.40;0.30;;;;;;;10.91;80.87;101142.97;5118310;27;20465;-72
2022/04/14 00:13:14;;;;;;;0.40;0.30;;;;;;;10.85;80.01;101142.22;5127557;27;20443;-72
2022/04/14 00:15:40;;;;;;;0.40;0.30;;;;;;;10.83;77.98;101138.97;5143171;27;20450;-72
2022/04/14 00:18:08;;;;;;;0.40;0.30;;;;;;;10.77;77.35;101140.16;5149161;27;20454;-72
2022/04/14 00:20:34;;;;;;;0.40;0.27;;;;;;;10.69;77.17;101141.59;5128883;27;20459;-72
2022/04/14 00:23:01;;;;;;;0.40;0.30;;;;;;;10.65;76.97;101145.97;5114295;28;20462;-73
2022/04/14 00:25:27;;;;;;;0.40;0.30;;;;;;;10.60;77.10;101149.53;5113969;28;20479;-72
2022/04/14 00:27:54;;;;;;;0.40;0.30;;;;;;;10.54;77.71;101144.47;5128868;27;21001;-71
2022/04/14 00:30:20;;;;;;;0.40;0.30;;;;;;;10.50;77.74;101144.22;5134435;27;20543;-73
2022/04/14 00:32:47;;;;;;;0.40;0.27;;;;;;;10.46;78.26;101143.19;5114504;28;20466;-71
2022/04/14 00:35:15;;;;;;;0.40;0.30;;;;;;;10.46;79.49;101150.50;5114368;27;20508;-72
2022/04/14 00:37:41;;;;;;;0.40;0.30;;;;;;;10.43;80.38;101161.91;5135088;27;20474;-72
2022/04/14 00:40:09;;;;;;;0.40;0.30;;;;;;;10.38;81.57;101160.06;5133365;27;20446;-73
2022/04/14 00:42:36;;;;;;;0.40;0.30;;;;;;;10.23;82.33;101152.84;5122123;27;20460;-73
2022/04/14 00:45:02;;;;;;;0.40;0.30;;;;;;;10.34;82.40;101150.88;5131250;27;20478;-72
2022/04/14 00:47:30;;;;;;;0.40;0.30;;;;;;;10.34;83.07;101154.38;5129626;27;20478;-72
2022/04/14 00:49:56;;;;;;;0.40;0.30;;;;;;;10.33;83.09;101150.06;5121919;27;20451;-72
2022/04/14 00:52:26;;;;;;;0.40;0.30;;;;;;;10.39;82.82;101148.13;5133368;27;20494;-72
2022/04/14 00:54:52;;;;;;;0.40;0.30;;;;;;;10.35;82.72;101152.47;5122868;27;20455;-72
2022/04/14 00:57:19;;;;;;;0.40;0.30;;;;;;;10.31;83.28;101151.44;5117389;27;20451;-72
2022/04/14 00:59:45;;;;;;;0.40;0.30;;;;;;;10.31;83.02;101154.16;5126029;27;20455;-72
2022/04/14 01:02:12;;;;;;;0.40;0.27;;;;;;;10.24;83.29;101151.78;5129826;27;20465;-72
2022/04/14 01:04:39;;;;;;;0.40;0.30;;;;;;;10.19;82.61;101154.50;5131241;27;20480;-72
2022/04/14 01:07:07;;;;;;;0.40;0.30;;;;;;;10.18;80.89;101154.78;5134150;27;20494;-73
2022/04/14 01:09:36;;;;;;;0.40;0.30;;;;;;;10.14;80.47;101159.13;5131114;27;20457;-72
2022/04/14 01:12:03;;;;;;;2.20;2.00;;;;;;;10.11;80.59;101157.81;5116543;27;20559;-72
2022/04/14 01:14:32;;;;;;;0.40;0.30;;;;;;;10.07;80.06;101164.91;5117335;27;20459;-72
2022/04/14 01:17:00;;;;;;;0.40;0.30;;;;;;;10.06;79.72;101164.09;5122738;27;20480;-72
2022/04/14 01:19:28;;;;;;;0.40;0.30;;;;;;;10.05;79.73;101156.25;5121658;27;20455;-72
2022/04/14 01:22:07;;;;;;;0.40;0.30;;;;;;;10.01;79.44;101166.03;5121027;27;20888;-72
2022/04/14 01:24:35;;;;;;;0.47;0.30;;;;;;;9.95;80.18;101159.03;5125535;27;20454;-72
2022/04/14 01:27:02;;;;;;;0.63;0.63;;;;;;;9.93;81.87;101155.81;5127117;27;20482;-72
2022/04/14 01:29:29;;;;;;;0.40;0.30;;;;;;;9.89;82.83;101157.47;5121017;27;20513;-72
2022/04/14 01:31:58;;;;;;;0.40;0.30;;;;;;;9.89;82.95;101160.97;5114901;28;20948;-72
2022/04/14 01:34:24;;;;;;;0.80;0.77;;;;;;;9.72;84.45;101171.38;5124077;28;20458;-72
2022/04/14 01:36:50;;;;;;;0.40;0.30;;;;;;;9.79;84.11;101169.97;5121475;27;20479;-72
2022/04/14 01:39:17;;;;;;;0.40;0.30;;;;;;;9.82;83.87;101174.81;5118453;28;20465;-71
2022/04/14 01:41:45;;;;;;;0.40;0.30;;;;;;;9.85;83.80;101168.84;5119367;27;20513;-72
2022/04/14 01:44:12;;;;;;;0.50;0.50;;;;;;;9.75;84.30;101168.13;5120004;28;20486;-72
2022/04/14 01:46:41;;;;;;;0.40;0.30;;;;;;;9.82;83.48;101185.63;5114950;28;20486;-76
2022/04/14 01:49:08;;;;;;;0.40;0.30;;;;;;;9.77;84.33;101176.75;5126829;28;20482;-76
2022/04/14 01:51:34;;;;;;;0.40;0.30;;;;;;;9.73;84.72;101178.41;5112797;28;20459;-75
2022/04/14 01:54:01;;;;;;;0.40;0.30;;;;;;;9.72;84.17;101183.00;5112497;28;21021;-75
2022/04/14 01:56:27;;;;;;;0.40;0.30;;;;;;;9.69;83.16;101177.34;5114920;28;20897;-75
2022/04/14 01:58:55;;;;;;;0.40;0.30;;;;;;;9.64;82.67;101174.66;5114353;28;20459;-75
2022/04/14 02:01:22;;;;;;;0.40;0.30;;;;;;;9.59;82.13;101178.22;5122557;28;20455;-75
2022/04/14 02:03:49;;;;;;;0.40;0.30;;;;;;;9.61;81.53;101186.88;5127897;28;20462;-75
2022/04/14 02:06:16;;;;;;;0.40;0.33;;;;;;;9.53;82.72;101184.75;5132277;27;20482;-75
2022/04/14 02:08:43;;;;;;;0.40;0.30;;;;;;;9.59;83.19;101203.34;5133124;27;20486;-76
2022/04/14 02:11:10;;;;;;;0.40;0.30;;;;;;;9.59;83.32;101194.44;5128771;27;20947;-76
2022/04/14 02:13:37;;;;;;;0.40;0.30;;;;;;;9.64;83.52;101213.34;5112917;28;20443;-76
2022/04/14 02:16:05;;;;;;;0.50;0.50;;;;;;;9.64;83.60;101207.13;5131786;28;20475;-75
2022/04/14 02:18:32;;;;;;;0.73;0.73;;;;;;;9.64;84.33;101209.81;5131341;27;20458;-76
2022/04/14 02:20:59;;;;;;;0.40;0.30;;;;;;;9.70;84.21;101212.25;5133873;27;20438;-75
2022/04/14 02:23:26;;;;;;;0.40;0.30;;;;;;;9.77;84.04;101206.50;5129698;27;20836;-75
2022/04/14 02:25:52;;;;;;;2.00;1.90;;;;;;;9.80;84.11;101211.38;5133677;27;20458;-75
2022/04/14 02:28:19;;;;;;;0.40;0.30;;;;;;;9.87;83.84;101201.03;5131336;27;20501;-75
2022/04/14 02:30:46;;;;;;;0.40;0.30;;;;;;;9.88;83.81;101212.69;5133748;28;20442;-75
2022/04/14 02:33:14;;;;;;;0.50;0.30;;;;;;;9.97;83.21;101208.28;5132560;27;20459;-75
2022/04/14 02:35:41;;;;;;;0.40;0.30;;;;;;;9.94;83.75;101214.25;5133383;27;20451;-75
2022/04/14 02:38:07;;;;;;;0.40;0.30;;;;;;;9.97;83.91;101214.50;5130124;27;20450;-75
2022/04/14 02:40:33;;;;;;;0.40;0.30;;;;;;;9.96;84.14;101210.19;5113061;28;20492;-75
2022/04/14 02:43:00;;;;;;;1.03;1.03;;;;;;;9.94;83.80;101219.66;5112705;28;20456;-76
2022/04/14 02:45:27;;;;;;;0.40;0.30;;;;;;;9.96;83.70;101221.00;5114371;28;20463;-76
2022/04/14 02:47:55;;;;;;;0.40;0.30;;;;;;;10.05;83.74;101223.94;5116619;28;20479;-75
2022/04/14 02:50:23;;;;;;;0.40;0.30;;;;;;;10.06;84.02;101230.94;5116211;28;20443;-76
2022/04/14 02:52:49;;;;;;;0.40;0.30;;;;;;;10.08;82.59;101229.56;5117211;27;20523;-74
2022/04/14 02:55:17;;;;;;;0.57;0.57;;;;;;;10.07;82.42;101241.47;5134750;27;20461;-75
2022/04/14 02:57:44;;;;;;;0.40;0.30;;;;;;;10.07;82.03;101244.19;5118367;27;20450;-75
2022/04/14 03:00:11;;;;;;;0.40;0.30;;;;;;;10.11;82.35;101244.44;5115892;28;20484;-75
2022/04/14 03:02:38;;;;;;;0.40;0.30;;;;;;;10.14;81.58;101246.59;5137007;27;20430;-75
2022/04/14 03:05:06;;;;;;;0.40;0.30;;;;;;;10.25;82.03;101244.66;5136409;27;20967;-74
2022/04/14 03:07:34;;;;;;;0.40;0.30;;;;;;;10.30;82.66;101248.13;5134646;27;20476;-74
2022/04/14 03:10:01;;;;;;;0.40;0.30;;;;;;;10.43;82.73;101235.81;5118200;27;20483;-74
2022/04/14 03:12:40;;;;;;;0.40;0.30;;;;;;;10.56;82.89;101245.19;5116186;28;20444;-73
2022/04/14 03:15:07;;;;;;;0.40;0.40;;;;;;;10.70;82.66;101238.03;5115917;27;20487;-73
2022/04/14 03:17:33;;;;;;;0.50;0.40;;;;;;;10.77;82.99;101243.94;5116071;28;20855;-73
2022/04/14 03:19:59;;;;;;;0.40;0.30;;;;;;;10.83;83.10;101240.06;5130498;27;20523;-75
2022/04/14 03:22:26;;;;;;;0.40;0.27;;;;;;;10.93;83.12;101247.28;5136601;27;20442;-74
2022/04/14 03:24:55;;;;;;;0.40;0.30;;;;;;;11.01;82.50;101243.94;5134830;27;20528;-76
2022/04/14 03:27:22;;;;;;;0.40;0.30;;;;;;;11.07;82.92;101250.13;5136343;27;20443;-75
2022/04/14 03:29:48;;;;;;;0.40;0.30;;;;;;;11.10;83.52;101253.06;5123822;27;20956;-74
2022/04/14 03:32:14;;;;;;;0.40;0.30;;;;;;;11.18;83.04;101251.63;5115730;28;20451;-74
2022/04/14 03:34:41;;;;;;;0.40;0.30;;;;;;;11.24;83.44;101247.75;5125351;27;20947;-74
2022/04/14 03:37:07;;;;;;;0.40;0.30;;;;;;;11.27;83.50;101238.25;5116660;27;20517;-74
2022/04/14 03:39:34;;;;;;;0.40;0.30;;;;;;;11.32;83.77;101249.81;5125287;27;20455;-74
2022/04/14 03:42:01;;;;;;;0.40;0.30;;;;;;;11.36;83.10;101248.16;5130435;27;20462;-73
2022/04/14 03:44:28;;;;;;;0.40;0.30;;;;;;;11.36;82.66;101231.88;5136113;27;20445;-74
2022/04/14 03:46:54;;;;;;;0.83;0.80;;;;;;;11.36;82.07;101241.94;5132072;27;20504;-74
2022/04/14 03:49:21;;;;;;;1.50;1.40;;;;;;;11.25;82.71;101235.81;5115417;28;20483;-73
2022/04/14 03:51:47;;;;;;;0.40;0.30;;;;;;;11.29;82.55;101242.28;5121091;27;20481;-74
2022/04/14 03:54:13;;;;;;;0.40;0.30;;;;;;;11.36;82.34;101241.94;5133927;27;20466;-74
2022/04/14 03:56:40;;;;;;;1.10;1.10;;;;;;;11.36;82.06;101240.00;5127441;27;20487;-75
2022/04/14 03:59:08;;;;;;;1.50;1.40;;;;;;;11.34;82.81;101250.34;5117822;27;20450;-75
2022/04/14 04:01:34;;;;;;;0.40;0.30;;;;;;;11.36;83.09;101263.63;5127020;27;20463;-73
2022/04/14 04:04:00;;;;;;;0.40;0.30;;;;;;;11.31;84.85;101280.75;5116372;27;20442;-74
2022/04/14 04:06:27;;;;;;;0.40;0.30;;;;;;;11.40;84.42;101274.72;5135552;27;20512;-75
2022/04/14 04:08:53;;;;;;;0.50;0.40;;;;;;;11.46;84.25;101273.53;5134131;27;20983;-75
2022/04/14 04:11:20;;;;;;;3.13;2.93;;;;;;;11.47;84.11;101286.03;5115274;28;20493;-74
2022/04/14 04:13:46;;;;;;;0.40;0.30;;;;;;;11.46;84.33;101278.97;5114999;28;20479;-74
2022/04/14 04:16:15;;;;;;;0.40;0.30;;;;;;;11.50;84.09;101288.16;5114344;28;20847;-74
2022/04/14 04:18:41;;;;;;;1.43;1.33;;;;;;;11.49;84.34;101281.91;5114927;28;20444;-74
2022/04/14 04:21:08;;;;;;;1.63;1.53;;;;;;;11.43;84.99;101285.78;5114155;28;20463;-74
2022/04/14 04:23:35;;;;;;;0.40;0.30;;;;;;;11.40;84.94;101283.66;5114821;28;20444;-74
2022/04/14 04:26:01;;;;;;;0.50;0.43;;;;;;;11.40;85.81;101285.56;5113621;28;20475;-74
2022/04/14 04:28:30;;;;;;;0.40;0.30;;;;;;;11.37;86.18;101286.94;5114120;28;20885;-73
2022/04/14 04:30:56;;;;;;;0.40;0.30;;;;;;;11.39;86.47;101283.94;5114747;28;20443;-70
2022/04/14 04:33:24;;;;;;;0.40;0.30;;;;;;;11.36;86.75;101299.69;5117087;27;20455;-71
2022/04/14 04:35:50;;;;;;;0.40;0.20;;;;;;;11.37;86.40;101306.72;5114398;28;20470;-70
2022/04/14 04:38:17;;;;;;;0.40;0.30;;;;;;;11.39;84.98;101311.06;5116266;27;20452;-71
2022/04/14 04:40:44;;;;;;;0.40;0.30;;;;;;;11.40;83.31;101302.63;5116552;27;20459;-73
2022/04/14 04:43:10;;;;;;;0.40;0.30;;;;;;;11.41;82.21;101298.81;5115343;27;20436;-72
2022/04/14 04:45:37;;;;;;;0.40;0.30;;;;;;;11.41;81.39;101295.31;5134758;27;20995;-73
2022/04/14 04:48:04;;;;;;;0.40;0.30;;;;;;;11.41;81.73;101287.97;5133718;27;20443;-72
2022/04/14 04:50:32;;;;;;;0.40;0.30;;;;;;;11.39;81.84;101292.09;5134799;27;20481;-72
2022/04/14 04:53:11;;;;;;;0.40;0.30;;;;;;;11.42;82.66;101294.19;5134679;27;20442;-73
2022/04/14 04:55:38;;;;;;;0.40;0.30;;;;;;;11.45;83.66;101280.06;5119679;27;20497;-73
2022/04/14 04:58:05;;;;;;;0.40;0.30;;;;;;;11.54;84.53;101275.63;5113771;28;20488;-72
2022/04/14 05:00:31;;;;;;;0.40;0.30;;;;;;;11.61;85.28;101276.09;5113890;28;20443;-72
2022/04/14 05:02:58;;;;;;;0.40;0.30;;;;;;;11.67;85.69;101279.53;5114197;28;20439;-73
2022/04/14 05:05:24;;;;;;;3.43;3.20;;;;;;;11.73;86.04;101281.06;5131594;27;20474;-73
2022/04/14 05:07:52;;;;;;;0.40;0.30;;;;;;;11.79;86.06;101282.63;5133583;27;20829;-73
2022/04/14 05:10:19;;;;;;;0.40;0.30;;;;;;;11.85;86.20;101281.47;5118010;27;20915;-71
2022/04/14 05:12:45;;;;;;;0.40;0.30;;;;;;;11.90;86.43;101288.75;5113651;28;20447;-72
2022/04/14 05:15:11;;;;;;;0.47;0.30;;;;;;;11.96;86.27;101284.88;5113678;27;20479;-72
2022/04/14 05:17:38;;;;;;;0.50;0.30;;;;;;;11.99;86.05;101287.00;5114476;28;20440;-72
2022/04/14 05:20:05;;;;;;;0.40;0.30;;;;;;;12.04;85.97;101289.63;5113065;28;20837;-73
2022/04/14 05:22:32;;;;;;;0.40;0.30;;;;;;;12.11;85.83;101295.50;5121859;27;20466;-72
2022/04/14 05:25:01;;;;;;;0.40;0.30;;;;;;;12.19;85.64;101294.84;5125764;27;20474;-73
2022/04/14 05:27:28;;;;;;;0.50;0.40;;;;;;;12.26;84.74;101289.88;5113689;28;20454;-73
2022/04/14 05:29:54;;;;;;;2.60;2.20;;;;;;;12.30;83.94;101299.03;5115314;28;21020;-73
2022/04/14 05:32:21;;;;;;;0.40;0.30;;;;;;;12.32;82.88;101304.97;5134227;27;20443;-73
2022/04/14 05:34:47;;;;;;;0.40;0.30;;;;;;;12.32;83.13;101313.13;5128444;27;20466;-73
2022/04/14 05:37:14;;;;;;;0.40;0.30;;;;;;;12.38;83.35;101309.22;5113817;28;20443;-72
2022/04/14 05:39:40;;;;;;;0.50;0.33;;;;;;;12.46;83.03;101313.19;5116505;28;20511;-73
2022/04/14 05:42:08;;;;;;;0.40;0.30;;;;;;;12.49;83.09;101317.25;5113532;28;20447;-72
2022/04/14 05:44:34;;;;;;;0.40;0.30;;;;;;;12.52;83.08;101327.50;5118901;28;20872;-72
2022/04/14 05:47:01;;;;;;;0.40;0.30;;;;;;;12.52;83.13;101322.06;5133786;27;20845;-72
2022/04/14 05:49:27;;;;;;;0.40;0.30;;;;;;;12.53;83.22;101326.41;5132109;27;20493;-72
2022/04/14 05:51:53;;;;;;;0.40;0.30;;;;;;;12.52;83.30;101325.59;5134079;27;20443;-72
2022/04/14 05:54:20;;;;;;;2.30;1.47;;;;;;;12.55;83.08;101326.91;5129428;27;20458;-72
2022/04/14 05:56:46;;;;;;;0.40;0.30;;;;;;;12.56;83.15;101318.47;5113520;28;20494;-72
2022/04/14 05:59:16;;;;;;;3.83;3.60;;;;;;;12.57;83.10;101309.22;5113039;28;20976;-72
2022/04/14 06:01:43;;;;;;;0.40;0.30;;;;;;;12.61;83.32;101318.38;5113292;28;20440;-72
2022/04/14 06:04:11;;;;;;;0.40;0.30;;;;;;;12.66;83.22;101313.97;5112398;28;20455;-72
2022/04/14 06:06:37;;;;;;;2.40;2.30;;;;;;;12.71;82.76;101320.13;5113123;28;20470;-72
2022/04/14 06:09:04;;;;;;;0.40;0.30;;;;;;;12.71;82.56;101311.19;5112904;28;20528;-71
2022/04/14 06:11:30;;;;;;;0.40;0.30;;;;;;;12.73;82.62;101317.91;5113373;28;20443;-72
2022/04/14 06:13:57;;;;;;;0.40;0.30;;;;;;;12.73;82.55;101312.47;5113826;28;20435;-72
2022/04/14 06:16:25;;;;;;;0.40;0.30;;;;;;;12.65;83.15;101315.06;5132288;28;20470;-72
2022/04/14 06:18:51;;;;;;;0.40;0.30;;;;;;;12.73;83.37;101315.19;5133088;27;20431;-73
2022/04/14 06:21:18;;;;;;;2.43;2.23;;;;;;;12.80;83.06;101318.34;5117200;27;20901;-72
2022/04/14 06:23:45;;;;;;;0.40;0.30;;;;;;;12.85;82.61;101318.25;5120809;27;20483;-72
2022/04/14 06:26:11;;;;;;;0.40;0.30;;;;;;;12.92;82.55;101319.78;5116716;28;20817;-72
2022/04/14 06:28:38;;;;;;;0.40;0.30;;;;;;;12.95;82.09;101319.19;5116987;27;20448;-72
2022/04/14 06:31:05;;;;;;;0.40;0.30;;;;;;;13.00;81.56;101322.63;5127892;27;20458;-72
2022/04/14 06:33:33;;;;;;;0.40;0.30;;;;;;;13.03;81.50;101319.31;5135768;27;20457;-71
2022/04/14 06:35:59;;;;;;;2.30;2.20;;;;;;;13.09;81.66;101320.03;5136676;27;20462;-72
2022/04/14 06:38:27;;;;;;;0.60;0.60;;;;;;;13.17;81.44;101321.25;5116218;28;20537;-72
2022/04/14 06:40:54;;;;;;;0.40;0.40;;;;;;;13.18;81.63;101322.84;5116810;28;20455;-72
2022/04/14 06:43:20;;;;;;;0.40;0.30;;;;;;;13.30;81.60;101323.22;5120649;27;20466;-72
2022/04/14 06:45:47;;;;;;;0.40;0.30;;;;;;;13.26;81.72;101328.44;5126623;27;20535;-73
2022/04/14 06:48:14;;;;;;;12.20;2.77;;;;;;;13.40;81.28;101322.19;5137245;27;20541;-73
2022/04/14 06:50:42;;;;;;;0.40;0.20;;;;;;;13.52;80.68;101325.25;5135681;27;20489;-71
2022/04/14 06:53:09;;;;;;;0.73;0.73;;;;;;;13.54;80.95;101326.53;5133527;27;20463;-71
2022/04/14 06:55:37;;;;;;;0.40;0.30;;;;;;;13.66;80.59;101334.19;5116500;28;20460;-74
2022/04/14 06:58:04;;;;;;;0.40;0.30;;;;;;;13.85;80.00;101340.34;5116488;27;20475;-72
2022/04/14 07:00:30;;;;;;;0.50;0.27;;;;;;;14.00;79.46;101346.59;5121889;27;20462;-73
2022/04/14 07:02:58;;;;;;;0.50;0.30;;;;;;;14.10;79.15;101343.63;5116020;28;20531;-73
2022/04/14 07:05:25;;;;;;;0.50;0.30;;;;;;;14.10;79.36;101332.75;5115999;28;20969;-73
2022/04/14 07:07:53;;;;;;;0.43;0.30;;;;;;;14.09;79.16;101331.94;5115968;28;20936;-72
2022/04/14 07:10:19;;;;;;;0.50;0.30;;;;;;;14.14;79.41;101331.00;5131750;27;20493;-75
2022/04/14 07:12:46;;;;;;;0.40;0.20;;;;;;;14.29;78.73;101341.56;5136699;27;20439;-75
2022/04/14 07:15:13;;;;;;;0.40;0.30;;;;;;;14.46;77.70;101334.66;5117635;27;20483;-75
2022/04/14 07:17:40;;;;;;;0.40;0.27;;;;;;;14.61;77.54;101329.69;5116107;28;20430;-75
2022/04/14 07:20:09;;;;;;;0.40;0.30;;;;;;;14.69;77.15;101322.66;5128396;27;21054;-75
2022/04/14 07:22:42;;;;;;;0.40;0.30;;;;;;;14.82;76.46;101321.78;5136244;27;20431;-74
2022/04/14 07:25:10;;;;;;;0.60;0.60;;;;;;;14.88;76.57;101331.47;5130799;27;20553;-74
2022/04/14 07:27:37;;;;;;;0.40;0.30;;;;;;;14.85;76.98;101337.53;5136394;27;20427;-74
2022/04/14 07:30:04;;;;;;;0.40;0.23;;;;;;;14.76;77.50;101331.22;5134130;27;20486;-74
2022/04/14 07:32:35;;;;;;;0.40;0.30;;;;;;;14.92;77.22;101336.28;5136200;27;20446;-74
2022/04/14 07:35:03;;;;;;;0.40;0.30;;;;;;;15.08;76.56;101335.56;5135097;27;20838;-75
2022/04/14 07:37:30;;;;;;;0.40;0.30;;;;;;;15.21;76.97;101335.81;5134568;27;20454;-74
2022/04/14 07:39:56;;;;;;;0.40;0.30;;;;;;;15.26;77.08;101333.75;5119505;27;20966;-74
2022/04/14 07:42:31;;;;;;;0.40;0.30;;;;;;;15.25;75.82;101331.34;5115509;28;20447;-74
2022/04/14 07:44:57;;;;;;;0.40;0.20;;;;;;;15.19;76.46;101338.06;5118174;27;20482;-74
2022/04/14 07:47:25;;;;;;;0.40;0.30;;;;;;;15.26;76.08;101336.47;5115466;28;20484;-75
2022/04/14 07:49:52;;;;;;;0.40;0.20;;;;;;;15.39;76.41;101346.50;5120933;27;20862;-74
2022/04/14 07:52:18;;;;;;;0.40;0.30;;;;;;;15.52;75.87;101338.50;5118639;27;20466;-72
2022/04/14 07:54:45;;;;;;;0.40;0.20;;;;;;;15.59;76.29;101338.88;5122429;27;20454;-75
2022/04/14 07:57:11;;;;;;;0.40;0.20;;;;;;;15.71;75.52;101333.63;5120383;27;20505;-74
2022/04/14 07:59:39;;;;;;;12.00;11.03;;;;;;;15.84;76.08;101346.34;5115350;27;20459;-74
2022/04/14 08:02:06;;;;;;;0.40;0.30;;;;;;;16.03;74.81;101343.34;5115293;28;20446;-74
2022/04/14 08:04:32;;;;;;;0.40;0.30;;;;;;;16.13;73.95;101347.69;5122555;27;20534;-74
2022/04/14 08:06:59;;;;;;;0.40;0.30;;;;;;;16.18;73.47;101350.28;5131162;27;20540;-74
2022/04/14 08:09:26;;;;;;;28.33;3.43;;;;;;;16.04;73.95;101352.34;5116023;27;20486;-74
2022/04/14 08:11:53;;;;;;;0.40;0.30;;;;;;;16.07;74.05;101354.44;5124634;27;20545;-73
2022/04/14 08:14:19;;;;;;;0.40;0.30;;;;;;;16.00;73.82;101367.78;5117081;27;20963;-73
2022/04/14 08:16:47;;;;;;;0.40;0.20;;;;;;;15.75;75.07;101375.56;5113960;27;20482;-72
2022/04/14 08:19:14;;;;;;;0.40;0.23;;;;;;;15.89;75.09;101381.75;5114460;28;21000;-72
2022/04/14 08:21:40;;;;;;;0.40;0.27;;;;;;;16.18;73.88;101372.16;5119944;27;20462;-72
2022/04/14 08:24:07;;;;;;;0.40;0.27;;;;;;;16.40;73.91;101380.22;5118876;27;20466;-72
2022/04/14 08:26:34;;;;;;;0.40;0.20;;;;;;;16.54;73.63;101380.06;5130184;27;20491;-72
2022/04/14 08:29:00;;;;;;;0.40;0.27;;;;;;;16.81;72.22;101384.41;5126782;27;20902;-73
2022/04/14 08:31:27;;;;;;;0.40;0.30;;;;;;;17.03;71.62;101390.81;5130792;27;20888;-73
2022/04/14 08:33:55;;;;;;;0.40;0.30;;;;;;;17.02;71.30;101384.56;5116532;27;20484;-72
2022/04/14 08:36:22;;;;;;;0.40;0.23;;;;;;;17.13;70.94;101390.47;5126733;27;20746;-73
2022/04/14 08:38:50;;;;;;;0.40;0.20;;;;;;;17.05;71.30;101394.84;5122928;27;20542;-71
2022/04/14 08:41:21;;;;;;;0.40;0.20;;;;;;;17.11;70.91;101390.00;5134703;27;20815;-73
2022/04/14 08:43:49;;;;;;;0.40;0.23;;;;;;;16.72;71.90;101386.34;5128722;27;21026;-72
2022/04/14 08:46:19;;;;;;;0.40;0.20;;;;;;;16.40;73.82;101393.88;5114318;27;20463;-72
2022/04/14 08:48:52;;;;;;;0.40;0.23;;;;;;;16.38;74.58;101398.06;5126161;27;20446;-71
2022/04/14 08:51:24;;;;;;;0.40;0.30;;;;;;;16.54;73.87;101403.88;5114179;27;20482;-72
2022/04/14 08:53:54;;;;;;;0.40;0.20;;;;;;;16.44;74.83;101401.44;5113002;27;20434;-73
2022/04/14 08:56:25;;;;;;;0.40;0.30;;;;;;;16.51;74.58;101401.75;5113137;27;20451;-73
2022/04/14 08:58:54;;;;;;;0.40;0.30;;;;;;;16.64;73.96;101406.28;5121236;27;20810;-75
2022/04/14 09:01:20;;;;;;;0.40;0.30;;;;;;;16.71;74.21;101395.66;5129751;27;20487;-75
2022/04/14 09:03:47;;;;;;;0.40;0.30;;;;;;;16.65;74.24;101414.19;5134554;27;20439;-74
2022/04/14 09:06:14;;;;;;;0.40;0.20;;;;;;;16.74;73.83;101411.47;5133325;27;20459;-75
2022/04/14 09:08:44;;;;;;;0.40;0.20;;;;;;;16.57;74.37;101417.72;5110760;27;20965;-74
2022/04/14 09:11:11;;;;;;;0.40;0.30;;;;;;;16.37;75.12;101415.59;5113437;28;20471;-74
2022/04/14 09:13:39;;;;;;;0.40;0.30;;;;;;;16.31;75.17;101420.41;5112863;27;20459;-75
2022/04/14 09:16:06;;;;;;;0.40;0.30;;;;;;;16.42;76.22;101414.63;5121959;27;20480;-74
2022/04/14 09:18:33;;;;;;;0.40;0.30;;;;;;;16.61;75.61;101415.94;5116706;27;20459;-73
2022/04/14 09:21:04;;;;;;;0.40;0.30;;;;;;;16.67;75.06;101416.56;5114299;28;20458;-74
2022/04/14 09:23:31;;;;;;;0.40;0.30;;;;;;;16.72;75.13;101413.72;5117716;27;20512;-74
2022/04/14 09:26:11;;;;;;;0.40;0.20;;;;;;;16.67;75.36;101413.84;5127100;27;20596;-74
2022/04/14 09:28:39;;;;;;;0.40;0.30;;;;;;;16.74;75.45;101416.16;5113343;28;20427;-75
2022/04/14 09:31:07;;;;;;;0.40;0.30;;;;;;;16.67;75.55;101418.50;5124174;27;20510;-74
2022/04/14 09:33:35;;;;;;;0.40;0.30;;;;;;;16.54;76.88;101412.06;5134082;27;20441;-73
2022/04/14 09:36:10;;;;;;;0.40;0.30;;;;;;;16.46;77.59;101415.59;5134040;27;20475;-74
2022/04/14 09:38:55;;;;;;;0.40;0.30;;;;;;;16.42;77.27;101415.44;5134278;27;20471;-74
2022/04/14 09:41:38;;;;;;;0.40;0.30;;;;;;;16.50;77.25;101413.84;5134117;27;20470;-73
2022/04/14 09:44:06;;;;;;;0.40;0.30;;;;;;;16.52;77.45;101414.34;5134112;27;20514;-74
2022/04/14 09:46:33;;;;;;;0.40;0.20;;;;;;;16.53;77.61;101411.28;5117617;27;20513;-74
2022/04/14 09:49:03;;;;;;;0.40;0.30;;;;;;;16.46;78.18;101412.88;5112375;28;20459;-72
2022/04/14 09:51:30;;;;;;;0.40;0.30;;;;;;;16.42;78.28;101414.63;5125052;27;21074;-74
2022/04/14 09:54:04;;;;;;;7.53;6.90;;;;;;;16.02;80.57;101411.97;5143923;27;20919;-74
2022/04/14 09:56:44;;;;;;;0.40;0.30;;;;;;;16.22;79.94;101414.13;5144769;27;20485;-74
2022/04/14 09:59:13;;;;;;;0.40;0.30;;;;;;;16.32;79.51;101413.81;5138248;27;20468;-73
2022/04/14 10:01:40;;;;;;;0.40;0.30;;;;;;;16.29;79.73;101406.25;5131367;27;20520;-74
2022/04/14 10:04:07;;;;;;;0.40;0.30;;;;;;;16.32;80.16;101410.28;5116432;27;20942;-73
2022/04/14 10:06:34;;;;;;;0.40;0.30;;;;;;;16.24;80.65;101414.59;5134004;27;20478;-74
2022/04/14 10:09:00;;;;;;;0.40;0.30;;;;;;;16.11;81.19;101421.00;5126851;27;20450;-74
2022/04/14 10:11:29;;;;;;;0.40;0.20;;;;;;;16.24;81.49;101414.59;5123111;27;20874;-74
2022/04/14 10:14:10;;;;;;;0.40;0.20;;;;;;;16.50;80.13;101416.56;5127550;27;20457;-74
2022/04/14 10:16:38;;;;;;;0.40;0.20;;;;;;;16.66;79.63;101425.91;5130146;27;20521;-74
2022/04/14 10:19:06;;;;;;;0.40;0.30;;;;;;;16.71;78.18;101417.56;5116384;27;20463;-75
2022/04/14 10:21:32;;;;;;;0.40;0.30;;;;;;;16.66;78.22;101423.19;5116200;27;20813;-74
2022/04/14 10:23:59;;;;;;;0.40;0.30;;;;;;;16.60;78.89;101421.72;5116699;27;20459;-74
2022/04/14 10:26:26;;;;;;;0.40;0.20;;;;;;;16.48;79.68;101416.09;5117080;28;20459;-74
2022/04/14 10:28:55;;;;;;;0.40;0.20;;;;;;;16.40;79.98;101413.03;5116713;27;20588;-74
2022/04/14 10:31:24;;;;;;;0.40;0.30;;;;;;;16.60;79.98;101413.50;5117355;27;20482;-74
2022/04/14 10:33:52;;;;;;;0.40;0.30;;;;;;;16.69;79.68;101419.81;5117010;28;20435;-73
2022/04/14 10:36:19;;;;;;;10.70;1.90;;;;;;;16.61;79.35;101409.66;5115804;27;20502;-74
2022/04/14 10:38:47;;;;;;;2.43;2.33;;;;;;;16.64;79.00;101409.84;5115908;27;20952;-74
2022/04/14 10:41:18;;;;;;;0.40;0.30;;;;;;;16.46;79.49;101410.13;5116852;27;20485;-74
2022/04/14 10:43:47;;;;;;;0.40;0.30;;;;;;;16.45;79.92;101411.25;5135998;27;20443;-74
2022/04/14 10:46:15;;;;;;;0.40;0.30;;;;;;;16.51;80.19;101423.63;5121532;27;20499;-74
2022/04/14 10:48:48;;;;;;;0.40;0.30;;;;;;;16.47;79.67;101428.97;5115538;27;20542;-74
2022/04/14 10:51:23;;;;;;;0.40;0.20;;;;;;;16.37;80.11;101424.59;5132315;27;20593;-74
2022/04/14 10:53:56;;;;;;;0.40;0.23;;;;;;;16.16;81.16;101434.53;5118349;27;20449;-74
2022/04/14 10:56:45;;;;;;;0.40;0.30;;;;;;;16.12;81.17;101434.38;5116323;27;20475;-75
2022/04/14 10:59:12;;;;;;;0.40;0.30;;;;;;;16.06;81.18;101429.34;5133145;27;20459;-73
2022/04/14 11:02:04;;;;;;;0.40;0.20;;;;;;;15.93;81.66;101452.13;5116719;27;20462;-75
2022/04/14 11:04:37;;;;;;;0.40;0.30;;;;;;;15.88;81.89;101445.69;5115898;27;20527;-75
2022/04/14 11:07:12;;;;;;;0.40;0.30;;;;;;;15.42;83.82;101442.56;5115335;27;20490;-74
2022/04/14 11:09:57;;;;;;;0.40;0.20;;;;;;;15.26;84.80;101445.66;5115530;27;20968;-74
2022/04/14 11:12:25;;;;;;;0.40;0.20;;;;;;;15.08;86.76;101441.19;5125386;27;20464;-74
2022/04/14 11:14:53;;;;;;;0.40;0.30;;;;;;;15.05;87.70;101433.63;5123752;27;20802;-73
2022/04/14 11:17:58;;;;;;;0.40;0.30;;;;;;;15.14;87.08;101432.59;5118444;27;20455;-73
2022/04/14 11:20:54;;;;;;;0.40;0.30;;;;;;;15.23;86.91;101438.09;5119081;27;20459;-75
2022/04/14 11:23:26;;;;;;;0.40;0.30;;;;;;;15.09;86.98;101432.69;5126256;27;20445;-74
2022/04/14 11:25:54;;;;;;;0.40;0.20;;;;;;;15.18;86.80;101446.41;5137328;27;20975;-73
2022/04/14 11:28:24;;;;;;;0.40;0.30;;;;;;;15.12;86.91;101444.91;5131931;27;20932;-74
2022/04/14 11:30:52;;;;;;;0.40;0.30;;;;;;;15.17;86.87;101441.25;5133974;27;20482;-73